Bradford, United Kingdom
Current Conditions -  °F | °C
As of 2:50 AM on Saturday 20 Dec 2014 (Local Time) from EGNM Reporting Station
Rain Showers Rain Showers  
Wind Chill: 33°   Ceiling: Unl
Heat Index: 43°   Visibility: 6mi
Dew Point: 37°   Wind: 26mph
Humidity: 81%   Direction: 270°W
Pressure: 29.97"   Gusts: 43mph
Location:  53.8°N, 1.75°W
Report Text: EGNM 200250Z 27023G37KT 9999 -SHRA SCT018 06/03 Q1015
Loading
Personal Weather Stations






























Interactive Weather Map New forecast layout! Learn more

10-Day Weather Forecast

Advertisements
Track Severe Weather on mobile